createdAt,value
2023-01-17T00:01:15.200Z,99737.56
2023-01-17T00:04:00.709Z,99743.63
2023-01-17T00:06:46.480Z,99748.41
2023-01-17T00:09:33.164Z,99729.84
2023-01-17T00:12:02.151Z,99725.97
2023-01-17T00:14:29.325Z,99722.91
2023-01-17T00:16:56.556Z,99727.44
2023-01-17T00:19:42.247Z,99732.25
2023-01-17T00:22:38.524Z,99733.88
2023-01-17T00:25:24.019Z,99723.31
2023-01-17T00:27:51.150Z,99727.63
2023-01-17T00:30:20.635Z,99721.91
2023-01-17T00:32:47.768Z,99721.78
2023-01-17T00:35:15.146Z,99719.91
2023-01-17T00:37:42.288Z,99725.06
2023-01-17T00:40:10.430Z,99717.38
2023-01-17T00:42:37.556Z,99712.19
2023-01-17T00:45:23.532Z,99715.09
2023-01-17T00:48:09.076Z,99713.19
2023-01-17T00:50:55.671Z,99712.09
2023-01-17T00:53:41.336Z,99721.28
2023-01-17T00:56:26.993Z,99718.88
2023-01-17T00:59:13.056Z,99726.44
2023-01-17T01:01:58.937Z,99728.97
2023-01-17T01:04:45.047Z,99727.94
2023-01-17T01:07:30.890Z,99719.78
2023-01-17T01:10:16.707Z,99722.16
2023-01-17T01:13:02.336Z,99732.63
2023-01-17T01:15:48.983Z,99720.50
2023-01-17T01:18:34.660Z,99715.97
2023-01-17T01:21:21.175Z,99708.88
2023-01-17T01:24:06.858Z,99723.41
2023-01-17T01:26:53.061Z,99713.59
2023-01-17T01:29:38.753Z,99715.97
2023-01-17T01:32:24.694Z,99710.75
2023-01-17T01:34:52.060Z,99719.47
2023-01-17T01:37:19.229Z,99710.25
2023-01-17T01:39:46.602Z,99701.06
2023-01-17T01:42:15.708Z,99697.75
2023-01-17T01:44:44.391Z,99707.47
2023-01-17T01:47:13.547Z,99713.06
2023-01-17T01:49:40.829Z,99697.28
2023-01-17T01:52:08.757Z,99690.47
2023-01-17T01:54:47.750Z,99694.75
2023-01-17T01:57:17.537Z,99700.53
2023-01-17T01:59:49.067Z,99696.72
2023-01-17T02:02:16.407Z,99698.38
2023-01-17T02:04:44.510Z,99707.69
2023-01-17T02:07:15.381Z,99715.50
2023-01-17T02:09:42.662Z,99696.19
2023-01-17T02:12:10.508Z,99695.47
2023-01-17T02:14:37.717Z,99704.41
2023-01-17T02:17:23.595Z,99705.38
2023-01-17T02:20:03.935Z,99702.88
2023-01-17T02:22:53.017Z,99691.25
2023-01-17T02:25:44.100Z,99701.34
2023-01-17T02:28:11.294Z,99686.97
2023-01-17T02:30:46.227Z,99697.66
2023-01-17T02:33:16.573Z,99685.31
2023-01-17T02:36:09.341Z,99696.41
2023-01-17T02:38:39.565Z,99673.28
2023-01-17T02:41:10.179Z,99672.81
2023-01-17T02:43:37.894Z,99678.41
2023-01-17T02:46:05.666Z,99677.50
2023-01-17T02:48:34.669Z,99674.09
2023-01-17T02:51:22.872Z,99675.13
2023-01-17T02:54:05.118Z,99671.50
2023-01-17T02:56:38.464Z,99671.25
2023-01-17T02:59:24.521Z,99670.47
2023-01-17T03:02:18.324Z,99666.41
2023-01-17T03:04:48.829Z,99667.72
2023-01-17T03:07:17.973Z,99677.53
2023-01-17T03:09:46.823Z,99676.38
2023-01-17T03:12:14.346Z,99668.03
2023-01-17T03:14:41.741Z,99659.09
2023-01-17T03:17:09.206Z,99667.16
2023-01-17T03:19:36.597Z,99664.13
2023-01-17T03:22:03.771Z,99666.50
2023-01-17T03:24:31.150Z,99669.78
2023-01-17T03:26:58.359Z,99662.66
2023-01-17T03:29:25.589Z,99658.16
2023-01-17T03:31:52.882Z,99662.22
2023-01-17T03:34:20.059Z,99660.78
2023-01-17T03:36:47.310Z,99653.88
2023-01-17T03:39:14.494Z,99656.69
2023-01-17T03:41:42.425Z,99657.31
2023-01-17T03:44:09.615Z,99659.81
2023-01-17T03:46:37.008Z,99650.81
2023-01-17T03:49:04.268Z,99649.59
2023-01-17T03:51:31.463Z,99654.09
2023-01-17T03:54:01.277Z,99657.63
2023-01-17T03:56:28.443Z,99653.44
2023-01-17T03:58:57.164Z,99647.00
2023-01-17T04:01:25.063Z,99655.34
2023-01-17T04:03:52.428Z,99656.22
2023-01-17T04:06:19.616Z,99656.13
2023-01-17T04:08:46.823Z,99669.00
2023-01-17T04:11:13.988Z,99658.81
2023-01-17T04:13:41.353Z,99666.72
2023-01-17T04:16:12.119Z,99662.31
2023-01-17T04:18:39.308Z,99668.13
2023-01-17T04:21:07.843Z,99665.44
2023-01-17T04:23:35.081Z,99669.19
2023-01-17T04:26:03.733Z,99670.97
2023-01-17T04:28:31.877Z,99671.59
2023-01-17T04:31:02.918Z,99676.16
2023-01-17T04:33:30.332Z,99675.00
2023-01-17T04:35:57.991Z,99676.63
2023-01-17T04:38:25.294Z,99674.41
2023-01-17T04:40:52.604Z,99680.88
2023-01-17T04:43:19.865Z,99679.88
2023-01-17T04:45:47.114Z,99684.81
2023-01-17T04:48:14.448Z,99678.66
2023-01-17T04:50:41.702Z,99686.72
2023-01-17T04:53:09.003Z,99683.13
2023-01-17T04:55:36.202Z,99680.63
2023-01-17T04:58:04.567Z,99676.47
2023-01-17T05:00:31.786Z,99681.69
2023-01-17T05:02:59.087Z,99678.66
2023-01-17T05:05:26.439Z,99683.34
2023-01-17T05:07:57.129Z,99679.44
2023-01-17T05:10:24.894Z,99682.97
2023-01-17T05:12:55.809Z,99685.41
2023-01-17T05:15:23.178Z,99671.66
2023-01-17T05:17:51.022Z,99679.34
2023-01-17T05:20:18.840Z,99684.41
2023-01-17T05:22:47.500Z,99684.63
2023-01-17T05:25:14.963Z,99679.25
2023-01-17T05:27:42.177Z,99676.59
2023-01-17T05:30:09.929Z,99683.31
2023-01-17T05:32:37.115Z,99675.56
2023-01-17T05:35:07.155Z,99681.50
2023-01-17T05:37:34.430Z,99671.78
2023-01-17T05:40:01.609Z,99681.78
2023-01-17T05:42:28.873Z,99684.78
2023-01-17T05:44:56.068Z,99679.94
2023-01-17T05:47:23.392Z,99684.69
2023-01-17T05:49:50.620Z,99688.75
2023-01-17T05:52:17.884Z,99689.75
2023-01-17T05:54:45.161Z,99685.09
2023-01-17T05:57:13.381Z,99682.09
2023-01-17T05:59:40.652Z,99683.63
2023-01-17T06:02:07.946Z,99680.59
2023-01-17T06:04:35.369Z,99677.31
2023-01-17T06:07:02.756Z,99678.50
2023-01-17T06:09:29.928Z,99677.72
2023-01-17T06:12:00.042Z,99676.56
2023-01-17T06:14:27.289Z,99681.22
2023-01-17T06:16:54.459Z,99682.41
2023-01-17T06:19:21.706Z,99684.72
2023-01-17T06:21:49.049Z,99680.81
2023-01-17T06:24:16.331Z,99688.88
2023-01-17T06:26:43.844Z,99684.59
2023-01-17T06:29:11.596Z,99684.53
2023-01-17T06:31:38.933Z,99691.97
2023-01-17T06:34:08.614Z,99691.44
2023-01-17T06:36:36.520Z,99684.31
2023-01-17T06:39:03.770Z,99687.84
2023-01-17T06:41:31.152Z,99684.91
2023-01-17T06:43:58.373Z,99686.56
2023-01-17T06:46:26.015Z,99687.44
2023-01-17T06:48:53.386Z,99690.50
2023-01-17T06:51:20.587Z,99685.69
2023-01-17T06:53:48.542Z,99684.50
2023-01-17T06:56:15.836Z,99689.00
2023-01-17T06:58:43.129Z,99682.19
2023-01-17T07:01:11.438Z,99692.53
2023-01-17T07:03:39.973Z,99685.06
2023-01-17T07:06:07.296Z,99684.19
2023-01-17T07:08:35.507Z,99690.31
2023-01-17T07:11:05.213Z,99694.41
2023-01-17T07:13:36.609Z,99688.06
2023-01-17T07:16:05.140Z,99685.34
2023-01-17T07:18:32.767Z,99697.72
2023-01-17T07:21:00.501Z,99691.50
2023-01-17T07:23:27.696Z,99691.94
2023-01-17T07:25:56.199Z,99695.44
2023-01-17T07:28:24.475Z,99695.03
2023-01-17T07:30:52.091Z,99692.50
2023-01-17T07:33:19.569Z,99698.75
2023-01-17T07:35:46.812Z,99693.59
2023-01-17T07:38:15.426Z,99691.28
2023-01-17T07:40:42.900Z,99691.28
2023-01-17T07:43:14.426Z,99688.66
2023-01-17T07:45:43.715Z,99688.00
2023-01-17T07:48:11.307Z,99682.81
2023-01-17T07:50:39.164Z,99693.06
2023-01-17T07:53:06.392Z,99702.09
2023-01-17T07:55:33.895Z,99691.31
2023-01-17T07:58:02.982Z,99690.91
2023-01-17T08:00:30.867Z,99705.38
2023-01-17T08:02:58.819Z,99707.38
2023-01-17T08:05:26.129Z,99694.19
2023-01-17T08:07:53.627Z,99700.56
2023-01-17T08:10:21.229Z,99695.53
2023-01-17T08:12:49.764Z,99701.66
2023-01-17T08:15:18.130Z,99699.38
2023-01-17T08:17:49.308Z,99704.22
2023-01-17T08:20:19.067Z,99706.19
2023-01-17T08:22:46.276Z,99706.31
2023-01-17T08:25:13.580Z,99706.31
2023-01-17T08:27:40.789Z,99706.75
2023-01-17T08:30:08.780Z,99705.63
2023-01-17T08:32:38.844Z,99705.63
2023-01-17T08:35:06.327Z,99695.84
2023-01-17T08:37:33.854Z,99696.63
2023-01-17T08:40:01.045Z,99698.06
2023-01-17T08:42:28.658Z,99710.59
2023-01-17T08:44:55.849Z,99701.03
2023-01-17T08:47:23.786Z,99693.00
2023-01-17T08:49:54.174Z,99698.53
2023-01-17T08:52:21.416Z,99689.28
2023-01-17T08:54:48.772Z,99703.47
2023-01-17T08:57:15.967Z,99692.56
2023-01-17T08:59:44.085Z,99694.53
2023-01-17T09:02:15.134Z,99684.13
2023-01-17T09:04:46.355Z,99691.13
2023-01-17T09:07:19.280Z,99694.31
2023-01-17T09:09:51.765Z,99690.56
2023-01-17T09:12:20.344Z,99689.16
2023-01-17T09:14:47.555Z,99683.84
2023-01-17T09:17:15.438Z,99686.84
2023-01-17T09:19:47.784Z,99686.28
2023-01-17T09:22:15.268Z,99687.41
2023-01-17T09:24:42.612Z,99686.38
2023-01-17T09:27:10.824Z,99690.69
2023-01-17T09:29:38.194Z,99697.16
2023-01-17T09:32:05.660Z,99675.47
2023-01-17T09:34:32.919Z,99671.97
2023-01-17T09:37:00.199Z,99670.94
2023-01-17T09:39:27.735Z,99670.50
2023-01-17T09:41:57.932Z,99672.47
2023-01-17T09:44:46.511Z,99668.91
2023-01-17T09:47:34.892Z,99672.34
2023-01-17T09:50:17.238Z,99669.03
2023-01-17T09:52:44.875Z,99664.84
2023-01-17T09:55:16.135Z,99666.81
2023-01-17T09:57:49.593Z,99680.47
2023-01-17T10:00:37.622Z,99675.50
2023-01-17T10:03:05.893Z,99684.41
2023-01-17T10:05:36.603Z,99668.00
2023-01-17T10:08:09.627Z,99668.25
2023-01-17T10:10:42.328Z,99670.56
2023-01-17T10:13:15.697Z,99674.75
2023-01-17T10:15:51.559Z,99671.44
2023-01-17T10:18:29.887Z,99675.84
2023-01-17T10:21:12.563Z,99670.56
2023-01-17T10:23:58.457Z,99676.28
2023-01-17T10:26:26.101Z,99671.44
2023-01-17T10:28:56.689Z,99676.63
2023-01-17T10:31:25.163Z,99681.56
2023-01-17T10:33:52.958Z,99676.50
2023-01-17T10:36:22.130Z,99671.44
2023-01-17T10:38:52.316Z,99666.69
2023-01-17T10:41:26.167Z,99670.47
2023-01-17T10:44:12.232Z,99669.03
2023-01-17T10:46:43.539Z,99673.41
2023-01-17T10:49:19.032Z,99671.34
2023-01-17T10:52:00.231Z,99662.75
2023-01-17T10:54:36.185Z,99663.84
2023-01-17T10:57:03.511Z,99665.81
2023-01-17T10:59:30.810Z,99656.91
2023-01-17T11:01:58.829Z,99659.19
2023-01-17T11:04:40.240Z,99666.97
2023-01-17T11:07:16.798Z,99672.38
2023-01-17T11:09:48.176Z,99668.06
2023-01-17T11:12:21.231Z,99665.06
2023-01-17T11:14:58.740Z,99665.53
2023-01-17T11:17:27.799Z,99681.13
2023-01-17T11:20:08.690Z,99667.81
2023-01-17T11:22:36.010Z,99659.25
2023-01-17T11:25:05.931Z,99660.31
2023-01-17T11:27:39.584Z,99667.09
2023-01-17T11:30:18.168Z,99652.94
2023-01-17T11:32:53.240Z,99660.72
2023-01-17T11:35:22.501Z,99669.22
2023-01-17T11:37:50.971Z,99659.50
2023-01-17T11:40:23.906Z,99671.47
2023-01-17T11:43:01.777Z,99663.78
2023-01-17T11:45:30.557Z,99659.94
2023-01-17T11:48:12.851Z,99658.72
2023-01-17T11:50:41.838Z,99664.66
2023-01-17T11:53:18.025Z,99653.56
2023-01-17T11:55:59.924Z,99655.53
2023-01-17T11:58:28.128Z,99667.84
2023-01-17T12:01:06.168Z,99661.81
2023-01-17T12:03:53.678Z,99660.50
2023-01-17T12:06:20.873Z,99665.00
2023-01-17T12:09:04.297Z,99671.53
2023-01-17T12:11:32.163Z,99662.69
2023-01-17T12:14:20.483Z,99665.59
2023-01-17T12:17:06.172Z,99664.09
2023-01-17T12:20:01.419Z,99661.41
2023-01-17T12:22:47.840Z,99661.91
2023-01-17T12:25:17.782Z,99667.25
2023-01-17T12:27:47.790Z,99665.59
2023-01-17T12:30:27.485Z,99664.53
2023-01-17T12:33:27.376Z,99663.31
2023-01-17T12:35:59.893Z,99657.38
2023-01-17T12:38:33.421Z,99658.34
2023-01-17T12:41:03.873Z,99655.06
2023-01-17T12:43:37.326Z,99669.22
2023-01-17T12:46:28.476Z,99662.59
2023-01-17T12:49:16.126Z,99664.56
2023-01-17T12:51:44.459Z,99660.94
2023-01-17T12:54:25.508Z,99654.97
2023-01-17T12:56:54.278Z,99660.16
2023-01-17T12:59:42.679Z,99656.06
2023-01-17T13:02:15.900Z,99657.22
2023-01-17T13:04:59.387Z,99658.97
2023-01-17T13:07:31.886Z,99652.16
2023-01-17T13:10:22.343Z,99646.63
2023-01-17T13:12:50.877Z,99650.34
2023-01-17T13:15:25.033Z,99648.78
2023-01-17T13:17:55.134Z,99662.91
2023-01-17T13:20:32.296Z,99657.94
2023-01-17T13:23:28.883Z,99656.56
2023-01-17T13:25:58.250Z,99650.31
2023-01-17T13:28:34.777Z,99657.94
2023-01-17T13:31:08.550Z,99645.84
2023-01-17T13:33:35.744Z,99652.88
2023-01-17T13:36:21.920Z,99657.16
2023-01-17T13:38:55.002Z,99650.53
2023-01-17T13:41:34.518Z,99644.38
2023-01-17T13:44:21.265Z,99645.66
2023-01-17T13:47:00.959Z,99640.88
2023-01-17T13:49:37.451Z,99635.09
2023-01-17T13:52:19.801Z,99636.69
2023-01-17T13:54:51.501Z,99631.69
2023-01-17T13:57:34.800Z,99637.81
2023-01-17T14:00:22.172Z,99631.78
2023-01-17T14:02:51.148Z,99627.09
2023-01-17T14:05:41.365Z,99629.06
2023-01-17T14:08:19.154Z,99628.84
2023-01-17T14:10:53.599Z,99621.94
2023-01-17T14:13:56.131Z,99631.69
2023-01-17T14:16:30.470Z,99633.63
2023-01-17T14:18:58.121Z,99624.09
2023-01-17T14:21:27.547Z,99630.16
2023-01-17T14:23:54.843Z,99639.59
2023-01-17T14:26:30.167Z,99631.88
2023-01-17T14:28:58.540Z,99630.53
2023-01-17T14:31:26.387Z,99637.16
2023-01-17T14:33:57.173Z,99634.50
2023-01-17T14:36:27.183Z,99636.47
2023-01-17T14:38:56.920Z,99632.19
2023-01-17T14:41:26.315Z,99635.78
2023-01-17T14:43:53.935Z,99640.69
2023-01-17T14:46:26.523Z,99635.88
2023-01-17T14:49:04.465Z,99640.38
2023-01-17T14:51:35.220Z,99629.16
2023-01-17T14:54:05.379Z,99623.66
2023-01-17T14:56:33.127Z,99624.66
2023-01-17T14:59:04.504Z,99627.50
2023-01-17T15:01:33.905Z,99626.41
2023-01-17T15:04:01.277Z,99623.59
2023-01-17T15:06:40.892Z,99619.09
2023-01-17T15:09:12.584Z,99624.25
2023-01-17T15:11:40.877Z,99624.56
2023-01-17T15:14:08.258Z,99618.50
2023-01-17T15:16:38.031Z,99622.03
2023-01-17T15:19:13.373Z,99615.47
2023-01-17T15:21:43.257Z,99621.06
2023-01-17T15:24:21.133Z,99619.41
2023-01-17T15:26:49.113Z,99607.31
2023-01-17T15:29:31.117Z,99617.13
2023-01-17T15:31:59.776Z,99625.94
2023-01-17T15:34:31.651Z,99621.06
2023-01-17T15:37:00.740Z,99622.03
2023-01-17T15:39:32.658Z,99630.69
2023-01-17T15:42:02.346Z,99625.34
2023-01-17T15:44:47.071Z,99628.06
2023-01-17T15:47:27.186Z,99632.66
2023-01-17T15:49:54.647Z,99630.59
2023-01-17T15:52:22.040Z,99632.28
2023-01-17T15:54:56.149Z,99628.75
2023-01-17T15:57:25.256Z,99633.94
2023-01-17T15:59:57.686Z,99629.53
2023-01-17T16:02:30.941Z,99619.09
2023-01-17T16:04:59.229Z,99609.41
2023-01-17T16:07:31.277Z,99609.78
2023-01-17T16:10:02.615Z,99613.34
2023-01-17T16:12:30.097Z,99620.75
2023-01-17T16:15:11.258Z,99617.34
2023-01-17T16:17:40.424Z,99608.44
2023-01-17T16:20:12.131Z,99620.94
2023-01-17T16:22:39.387Z,99610.59
2023-01-17T16:25:12.541Z,99609.63
2023-01-17T16:27:41.550Z,99604.75
2023-01-17T16:30:09.969Z,99612.38
2023-01-17T16:32:37.178Z,99606.50
2023-01-17T16:35:06.388Z,99619.28
2023-01-17T16:37:33.599Z,99619.84
2023-01-17T16:40:00.904Z,99612.06
2023-01-17T16:42:28.669Z,99611.78
2023-01-17T16:44:55.958Z,99605.78
2023-01-17T16:47:23.178Z,99609.16
2023-01-17T16:49:50.388Z,99610.69
2023-01-17T16:52:17.587Z,99621.38
2023-01-17T16:54:44.832Z,99627.41
2023-01-17T16:57:12.099Z,99625.16
2023-01-17T16:59:50.212Z,99624.00
2023-01-17T17:02:18.819Z,99608.16
2023-01-17T17:04:46.036Z,99592.66
2023-01-17T17:07:13.270Z,99592.75
2023-01-17T17:09:40.625Z,99611.31
2023-01-17T17:12:08.050Z,99578.88
2023-01-17T17:14:35.545Z,99585.63
2023-01-17T17:17:02.906Z,99597.69
2023-01-17T17:19:32.220Z,99598.28
2023-01-17T17:21:59.984Z,99595.75
2023-01-17T17:24:27.558Z,99599.44
2023-01-17T17:26:54.783Z,99597.13
2023-01-17T17:29:22.053Z,99613.47
2023-01-17T17:31:49.315Z,99620.47
2023-01-17T17:34:16.673Z,99609.00
2023-01-17T17:36:44.053Z,99607.91
2023-01-17T17:39:17.232Z,99602.66
2023-01-17T17:41:45.744Z,99609.75
2023-01-17T17:44:13.083Z,99604.66
2023-01-17T17:46:42.233Z,99606.75
2023-01-17T17:49:09.512Z,99609.56
2023-01-17T17:51:37.856Z,99620.22
2023-01-17T17:54:06.705Z,99613.25
2023-01-17T17:56:34.456Z,99615.25
2023-01-17T17:59:02.377Z,99608.75
2023-01-17T18:01:30.164Z,99624.34
2023-01-17T18:04:00.711Z,99622.75
2023-01-17T18:06:27.990Z,99610.88
2023-01-17T18:08:55.213Z,99633.78
2023-01-17T18:11:24.135Z,99626.28
2023-01-17T18:13:52.596Z,99612.94
2023-01-17T18:16:24.566Z,99621.09
2023-01-17T18:18:53.053Z,99620.66
2023-01-17T18:21:25.342Z,99624.41
2023-01-17T18:23:57.851Z,99635.41
2023-01-17T18:26:26.119Z,99631.56
2023-01-17T18:28:54.222Z,99616.56
2023-01-17T18:31:24.167Z,99636.31
2023-01-17T18:33:51.891Z,99618.91
2023-01-17T18:36:19.674Z,99624.22
2023-01-17T18:38:49.776Z,99637.75
2023-01-17T18:41:18.711Z,99625.84
2023-01-17T18:43:46.305Z,99621.44
2023-01-17T18:46:14.352Z,99627.03
2023-01-17T18:48:41.963Z,99633.25
2023-01-17T18:51:10.351Z,99618.31
2023-01-17T18:53:40.200Z,99631.13
2023-01-17T18:56:09.011Z,99630.16
2023-01-17T18:58:38.277Z,99637.28
2023-01-17T19:01:07.114Z,99624.56
2023-01-17T19:03:34.657Z,99633.16
2023-01-17T19:06:05.182Z,99634.03
2023-01-17T19:08:33.049Z,99606.69
2023-01-17T19:11:00.839Z,99596.22
2023-01-17T19:13:28.086Z,99603.72
2023-01-17T19:15:58.865Z,99610.44
2023-01-17T19:18:26.141Z,99604.50
2023-01-17T19:20:53.453Z,99615.09
2023-01-17T19:23:21.777Z,99608.84
2023-01-17T19:25:55.428Z,99606.25
2023-01-17T19:28:22.637Z,99609.41
2023-01-17T19:30:49.922Z,99613.94
2023-01-17T19:33:17.149Z,99637.16
2023-01-17T19:35:44.378Z,99620.75
2023-01-17T19:38:11.586Z,99620.84
2023-01-17T19:40:38.918Z,99620.41
2023-01-17T19:43:06.534Z,99626.50
2023-01-17T19:45:33.799Z,99625.03
2023-01-17T19:48:01.069Z,99635.50
2023-01-17T19:50:28.475Z,99628.88
2023-01-17T19:52:55.725Z,99631.22
2023-01-17T19:55:25.832Z,99616.22
2023-01-17T19:57:53.136Z,99634.19
2023-01-17T20:00:29.936Z,99644.84
2023-01-17T20:02:57.559Z,99619.69
2023-01-17T20:05:24.843Z,99631.13
2023-01-17T20:07:52.331Z,99660.53
2023-01-17T20:10:21.032Z,99646.66
2023-01-17T20:12:48.233Z,99619.25
2023-01-17T20:15:18.616Z,99628.69
2023-01-17T20:17:46.139Z,99619.88
2023-01-17T20:20:13.418Z,99628.81
2023-01-17T20:22:44.554Z,99637.06
2023-01-17T20:25:12.013Z,99642.13
2023-01-17T20:27:40.781Z,99643.78
2023-01-17T20:30:19.857Z,99641.25
2023-01-17T20:32:47.943Z,99651.63
2023-01-17T20:35:16.108Z,99645.69
2023-01-17T20:37:43.418Z,99645.09
2023-01-17T20:40:12.836Z,99650.53
2023-01-17T20:42:40.051Z,99664.06
2023-01-17T20:45:08.996Z,99644.47
2023-01-17T20:47:36.208Z,99640.97
2023-01-17T20:50:04.468Z,99644.38
2023-01-17T20:52:34.575Z,99642.63
2023-01-17T20:55:01.851Z,99664.72
2023-01-17T20:57:31.445Z,99659.13
2023-01-17T20:59:58.699Z,99658.91
2023-01-17T21:02:27.249Z,99650.75
2023-01-17T21:04:54.493Z,99649.66
2023-01-17T21:07:21.648Z,99660.31
2023-01-17T21:09:48.831Z,99659.69
2023-01-17T21:12:16.749Z,99659.91
2023-01-17T21:14:43.932Z,99657.03
2023-01-17T21:17:11.097Z,99665.63
2023-01-17T21:19:38.322Z,99660.34
2023-01-17T21:22:05.632Z,99648.56
2023-01-17T21:24:32.805Z,99645.28
2023-01-17T21:27:00.643Z,99656.38
2023-01-17T21:29:29.288Z,99663.31
2023-01-17T21:31:56.591Z,99666.94
2023-01-17T21:34:25.446Z,99656.81
2023-01-17T21:36:52.786Z,99652.53
2023-01-17T21:39:20.154Z,99663.56
2023-01-17T21:41:49.661Z,99652.66
2023-01-17T21:44:21.091Z,99665.63
2023-01-17T21:46:49.172Z,99648.13
2023-01-17T21:49:17.359Z,99653.31
2023-01-17T21:52:05.135Z,99659.13
2023-01-17T21:54:50.871Z,99649.56
2023-01-17T21:57:38.509Z,99658.16
2023-01-17T22:00:06.749Z,99666.06
2023-01-17T22:02:44.184Z,99662.66
2023-01-17T22:05:11.603Z,99641.66
2023-01-17T22:08:01.721Z,99647.59
2023-01-17T22:10:28.928Z,99642.63
2023-01-17T22:12:56.304Z,99638.13
2023-01-17T22:15:23.708Z,99637.03
2023-01-17T22:17:50.898Z,99645.69
2023-01-17T22:20:20.942Z,99642.31
2023-01-17T22:22:48.469Z,99620.75
2023-01-17T22:25:15.736Z,99619.84
2023-01-17T22:27:42.939Z,99612.94
2023-01-17T22:30:13.148Z,99614.16
2023-01-17T22:32:40.475Z,99613.28
2023-01-17T22:35:08.511Z,99611.50
2023-01-17T22:37:35.913Z,99598.66
2023-01-17T22:40:06.027Z,99616.16
2023-01-17T22:42:36.350Z,99614.25
2023-01-17T22:45:04.012Z,99602.47
2023-01-17T22:47:33.167Z,99587.97
2023-01-17T22:50:04.460Z,99604.25
2023-01-17T22:52:32.331Z,99586.47
2023-01-17T22:54:59.511Z,99603.72
2023-01-17T22:57:26.802Z,99610.09
2023-01-17T22:59:55.048Z,99599.63
2023-01-17T23:02:22.388Z,99602.06
2023-01-17T23:04:49.668Z,99588.97
2023-01-17T23:07:16.998Z,99577.00
2023-01-17T23:09:44.703Z,99597.34
2023-01-17T23:12:12.078Z,99603.72
2023-01-17T23:15:00.098Z,99606.91
2023-01-17T23:17:46.045Z,99600.75
2023-01-17T23:20:13.254Z,99604.38
2023-01-17T23:22:40.521Z,99615.81
2023-01-17T23:25:09.907Z,99608.22
2023-01-17T23:27:56.361Z,99596.47
2023-01-17T23:30:26.180Z,99617.25
2023-01-17T23:32:58.368Z,99613.50
2023-01-17T23:35:29.755Z,99619.31
2023-01-17T23:38:15.635Z,99617.09
2023-01-17T23:40:43.357Z,99636.59
2023-01-17T23:43:22.947Z,99635.38
2023-01-17T23:45:53.964Z,99625.25
2023-01-17T23:48:22.032Z,99609.75
2023-01-17T23:50:49.593Z,99606.91
2023-01-17T23:53:22.552Z,99610.22
2023-01-17T23:55:51.726Z,99617.66
2023-01-17T23:58:19.868Z,99616.16
